Time;durP1;ratioP1;P1;durP2;ratioP2;P2;SDS_P1;SDS_P2;PMS_P1;PMS_P2;Temp;Humidity;BMP_temperature;BMP_pressure;BME280_temperature;BME280_humidity;BME280_pressure;Samples;Min_cycle;Max_cycle;Signal;HPM_P1;HPM_P2
2022/06/24 00:02:25;;;;;;;1.20;1.10;;;25.20;59.50;;;;;;5082710;28;20491;-66
2022/06/24 00:04:58;;;;;;;1.63;0.83;;;25.20;58.10;;;;;;5082557;28;20493;-67
2022/06/24 00:07:28;;;;;;;0.60;0.60;;;25.10;58.80;;;;;;5081957;28;20453;-66
2022/06/24 00:10:01;;;;;;;3.00;0.90;;;25.00;60.00;;;;;;5082375;28;20441;-67
2022/06/24 00:12:34;;;;;;;0.80;0.80;;;25.00;60.00;;;;;;5082630;28;20444;-66
2022/06/24 00:15:13;;;;;;;1.07;0.90;;;25.00;59.00;;;;;;5082399;28;20455;-66
2022/06/24 00:17:43;;;;;;;1.40;0.90;;;24.90;59.40;;;;;;5082441;28;20444;-66
2022/06/24 00:20:19;;;;;;;1.50;1.40;;;24.80;57.90;;;;;;5080862;28;21297;-67
2022/06/24 00:22:51;;;;;;;0.70;0.60;;;25.00;58.00;;;;;;5082492;28;20496;-66
2022/06/24 00:25:25;;;;;;;0.70;0.60;;;25.00;56.30;;;;;;5081432;28;20962;-67
2022/06/24 00:28:05;;;;;;;0.50;0.50;;;25.00;55.70;;;;;;5082799;28;20436;-66
2022/06/24 00:30:40;;;;;;;3.23;0.83;;;25.00;54.30;;;;;;5080882;28;20468;-66
2022/06/24 00:33:15;;;;;;;1.00;0.70;;;25.00;51.10;;;;;;5077591;28;20456;-66
2022/06/24 00:35:47;;;;;;;0.83;0.50;;;24.80;51.30;;;;;;5081281;28;20458;-67
2022/06/24 00:38:26;;;;;;;0.60;0.60;;;24.60;54.20;;;;;;5081455;28;20459;-66
2022/06/24 00:41:02;;;;;;;1.50;0.97;;;24.70;54.00;;;;;;5080611;28;20482;-66
2022/06/24 00:43:37;;;;;;;1.40;0.93;;;24.70;54.60;;;;;;5081519;28;20481;-67
2022/06/24 00:46:12;;;;;;;0.83;0.60;;;24.80;54.60;;;;;;5080558;28;21239;-66
2022/06/24 00:48:48;;;;;;;0.83;0.73;;;24.60;53.60;;;;;;5081677;28;20447;-66
2022/06/24 00:51:32;;;;;;;1.37;1.20;;;24.60;54.00;;;;;;5077405;28;20459;-66
2022/06/24 00:54:15;;;;;;;1.03;0.70;;;24.50;56.30;;;;;;5078572;28;20477;-65
2022/06/24 00:56:49;;;;;;;1.63;1.10;;;24.60;54.10;;;;;;5079705;28;20470;-66
2022/06/24 00:59:20;;;;;;;0.87;0.77;;;24.40;54.50;;;;;;5079570;28;20478;-66
2022/06/24 01:02:00;;;;;;;0.63;0.63;;;24.50;56.10;;;;;;5081311;28;20459;-65
2022/06/24 01:04:35;;;;;;;1.20;0.60;;;24.50;53.60;;;;;;5078028;28;20462;-67
2022/06/24 01:07:06;;;;;;;1.00;1.00;;;24.50;54.10;;;;;;5080714;28;20456;-65
2022/06/24 01:09:37;;;;;;;0.70;0.70;;;24.40;56.60;;;;;;5079465;28;20475;-66
2022/06/24 01:12:11;;;;;;;1.10;0.83;;;24.40;55.10;;;;;;5080051;28;20464;-66
2022/06/24 01:14:42;;;;;;;1.00;0.90;;;24.20;55.20;;;;;;5079543;28;20482;-66
2022/06/24 01:17:13;;;;;;;0.60;0.60;;;24.00;55.50;;;;;;5080943;28;20479;-66
2022/06/24 01:19:44;;;;;;;0.90;0.70;;;24.10;56.80;;;;;;5081126;28;20489;-66
2022/06/24 01:22:21;;;;;;;0.80;0.70;;;24.10;57.90;;;;;;5079864;28;20570;-67
2022/06/24 01:24:52;;;;;;;0.80;0.73;;;24.10;57.90;;;;;;5072936;28;20529;-65
2022/06/24 01:27:23;;;;;;;0.80;0.60;;;24.10;57.70;;;;;;5080889;28;20494;-66
2022/06/24 01:29:54;;;;;;;0.67;0.67;;;23.90;54.50;;;;;;5066709;28;20466;-65
2022/06/24 01:32:24;;;;;;;0.90;0.90;;;23.90;56.90;;;;;;5080585;28;20474;-65
2022/06/24 01:34:56;;;;;;;0.80;0.60;;;23.80;55.30;;;;;;5079062;28;20939;-65
2022/06/24 01:37:28;;;;;;;0.80;0.80;;;23.80;55.20;;;;;;5081610;28;20586;-66
2022/06/24 01:39:59;;;;;;;1.30;1.17;;;23.60;56.40;;;;;;5080852;28;20545;-66
2022/06/24 01:42:30;;;;;;;1.13;0.70;;;23.70;56.90;;;;;;5081296;28;20452;-66
2022/06/24 01:45:02;;;;;;;1.10;0.97;;;23.70;59.00;;;;;;5080345;28;20468;-66
2022/06/24 01:47:33;;;;;;;1.60;1.10;;;23.60;58.80;;;;;;5080669;28;20462;-66
2022/06/24 01:50:04;;;;;;;0.70;0.70;;;23.50;58.70;;;;;;5081035;28;20436;-66
2022/06/24 01:52:37;;;;;;;0.70;0.70;;;23.50;58.40;;;;;;5080334;28;20469;-66
2022/06/24 01:55:08;;;;;;;1.13;0.80;;;23.30;59.80;;;;;;5078508;28;20466;-66
2022/06/24 01:57:39;;;;;;;1.27;0.70;;;23.40;61.20;;;;;;5079922;28;20952;-65
2022/06/24 02:00:11;;;;;;;1.93;1.40;;;23.30;62.80;;;;;;5070320;28;20460;-65
2022/06/24 02:02:42;;;;;;;1.00;0.90;;;23.20;63.50;;;;;;5079137;28;21060;-66
2022/06/24 02:05:15;;;;;;;1.23;0.80;;;23.20;64.20;;;;;;5079600;28;20467;-65
2022/06/24 02:07:48;;;;;;;1.13;0.87;;;23.10;63.70;;;;;;5060901;28;20455;-66
2022/06/24 02:15:55;;;;;;;1.77;0.90;;;22.90;65.90;;;;;;5082680;28;20466;-66
2022/06/24 02:18:26;;;;;;;1.00;0.83;;;22.80;66.60;;;;;;5082167;28;20463;-66
2022/06/24 02:20:57;;;;;;;1.53;0.90;;;22.80;66.40;;;;;;5082996;28;20561;-66
2022/06/24 02:23:30;;;;;;;1.70;0.93;;;22.80;66.30;;;;;;5082988;28;20522;-66
2022/06/24 02:26:01;;;;;;;0.90;0.80;;;22.80;65.80;;;;;;5082724;28;20466;-66
2022/06/24 02:28:32;;;;;;;1.60;1.20;;;22.70;66.40;;;;;;5066326;28;20956;-66
2022/06/24 02:31:05;;;;;;;1.07;0.97;;;22.60;67.80;;;;;;5083201;28;20467;-66
2022/06/24 02:33:37;;;;;;;1.67;1.10;;;22.60;68.40;;;;;;5065145;28;20535;-65
2022/06/24 02:36:08;;;;;;;1.83;1.30;;;22.50;68.90;;;;;;5081471;28;20467;-66
2022/06/24 02:38:40;;;;;;;0.97;0.90;;;22.40;71.50;;;;;;5083041;28;20443;-65
2022/06/24 02:41:15;;;;;;;0.80;0.80;;;22.20;70.30;;;;;;5083342;28;20509;-65
2022/06/24 02:43:46;;;;;;;0.97;0.83;;;22.10;71.20;;;;;;5077885;28;20510;-65
2022/06/24 02:46:18;;;;;;;1.00;0.80;;;22.00;72.70;;;;;;5082957;28;20466;-65
2022/06/24 02:48:50;;;;;;;1.73;1.13;;;22.00;72.90;;;;;;5067693;28;20448;-65
2022/06/24 02:51:21;;;;;;;1.73;0.90;;;22.00;70.40;;;;;;5082759;28;20798;-66
2022/06/24 02:53:54;;;;;;;1.10;0.80;;;21.90;71.90;;;;;;5076090;28;20534;-65
2022/06/24 02:56:25;;;;;;;1.13;0.67;;;21.80;72.80;;;;;;5083015;28;20451;-65
2022/06/24 02:58:55;;;;;;;1.33;1.10;;;21.70;72.70;;;;;;5081398;28;20461;-65
2022/06/24 03:01:26;;;;;;;1.87;1.00;;;21.70;72.00;;;;;;5082713;28;20452;-65
2022/06/24 03:03:57;;;;;;;1.03;0.93;;;21.70;71.60;;;;;;5082795;28;20487;-66
2022/06/24 03:06:28;;;;;;;1.03;0.87;;;21.60;71.80;;;;;;5082549;28;20893;-67
2022/06/24 03:09:05;;;;;;;1.80;0.80;;;21.50;73.40;;;;;;5082854;28;20475;-64
2022/06/24 03:11:42;;;;;;;1.40;0.80;;;21.50;74.20;;;;;;5082380;28;20459;-65
2022/06/24 03:14:13;;;;;;;2.50;0.90;;;21.40;74.80;;;;;;5081210;28;20441;-65
2022/06/24 03:16:44;;;;;;;1.27;0.70;;;21.30;75.80;;;;;;5082178;28;20466;-64
2022/06/24 03:19:15;;;;;;;1.47;0.90;;;21.20;77.00;;;;;;5081872;28;20434;-64
2022/06/24 03:21:46;;;;;;;1.40;0.83;;;21.10;77.50;;;;;;5082861;28;20479;-65
2022/06/24 03:24:19;;;;;;;1.23;0.80;;;21.10;78.30;;;;;;5079179;28;20499;-65
2022/06/24 03:26:50;;;;;;;1.03;0.93;;;21.00;76.90;;;;;;5079973;28;20467;-65
2022/06/24 03:29:25;;;;;;;2.30;0.83;;;21.00;77.10;;;;;;5082264;28;20463;-65
2022/06/24 03:31:58;;;;;;;0.90;0.90;;;20.90;78.10;;;;;;5082567;28;20564;-64
2022/06/24 03:34:33;;;;;;;1.63;0.70;;;20.80;79.00;;;;;;5080536;28;20421;-64
2022/06/24 03:37:04;;;;;;;1.50;1.00;;;20.80;79.30;;;;;;5082117;28;20780;-66
2022/06/24 03:39:37;;;;;;;1.37;0.90;;;20.70;79.20;;;;;;5078951;28;20455;-65
2022/06/24 03:42:09;;;;;;;1.47;1.13;;;20.70;80.00;;;;;;5080290;28;20602;-64
2022/06/24 03:44:41;;;;;;;1.47;1.20;;;20.60;79.90;;;;;;5079926;28;20520;-64
2022/06/24 03:47:14;;;;;;;1.10;1.00;;;20.60;81.10;;;;;;5082612;28;20488;-64
2022/06/24 03:49:45;;;;;;;1.33;0.80;;;20.50;82.00;;;;;;5080973;28;20435;-64
2022/06/24 03:52:19;;;;;;;1.10;1.00;;;20.40;83.10;;;;;;5080575;28;20534;-64
2022/06/24 03:54:51;;;;;;;1.90;1.00;;;20.40;82.40;;;;;;5081740;28;20430;-64
2022/06/24 03:57:22;;;;;;;2.30;1.07;;;20.30;83.50;;;;;;5081559;28;20434;-65
2022/06/24 03:59:53;;;;;;;1.13;0.90;;;20.20;84.60;;;;;;5081090;28;20459;-64
2022/06/24 04:02:23;;;;;;;1.57;1.27;;;20.10;84.40;;;;;;5078333;28;20434;-65
2022/06/24 04:04:55;;;;;;;1.40;1.20;;;20.10;85.20;;;;;;5063290;28;20478;-64
2022/06/24 04:07:25;;;;;;;2.87;1.33;;;20.10;85.50;;;;;;5081831;28;20486;-64
2022/06/24 04:09:58;;;;;;;2.20;0.97;;;20.00;86.80;;;;;;5081297;28;20528;-66
2022/06/24 04:12:29;;;;;;;0.90;0.80;;;19.80;87.70;;;;;;5081574;28;20434;-67
2022/06/24 04:15:15;;;;;;;1.73;1.10;;;19.70;88.90;;;;;;5079529;28;20653;-65
2022/06/24 04:17:47;;;;;;;1.20;1.10;;;19.60;89.70;;;;;;5079366;28;20441;-66
2022/06/24 04:20:19;;;;;;;1.63;1.40;;;19.60;89.70;;;;;;5079304;28;20467;-65
2022/06/24 04:22:50;;;;;;;2.80;1.40;;;19.50;90.10;;;;;;5072732;28;20524;-64
2022/06/24 04:25:23;;;;;;;2.07;0.93;;;19.40;90.30;;;;;;5078970;28;20969;-67
2022/06/24 04:27:54;;;;;;;3.23;1.17;;;19.30;90.90;;;;;;5078871;28;20463;-64
2022/06/24 04:30:25;;;;;;;1.47;0.80;;;19.30;91.10;;;;;;5078345;28;20455;-66
2022/06/24 04:32:55;;;;;;;2.90;1.93;;;19.20;91.70;;;;;;5081349;28;20434;-64
2022/06/24 04:35:27;;;;;;;2.00;1.03;;;19.00;92.40;;;;;;5079024;28;20456;-65
2022/06/24 04:38:01;;;;;;;1.20;1.10;;;18.90;93.10;;;;;;5080757;28;20436;-64
2022/06/24 04:40:33;;;;;;;2.53;1.20;;;18.80;93.20;;;;;;5079216;28;20452;-65
2022/06/24 04:43:07;;;;;;;1.90;1.00;;;18.80;93.60;;;;;;5077883;28;20455;-63
2022/06/24 04:45:38;;;;;;;2.50;1.40;;;18.60;94.10;;;;;;5078840;28;20506;-65
2022/06/24 04:48:13;;;;;;;1.03;0.80;;;18.60;94.10;;;;;;5080549;28;20773;-65
2022/06/24 04:50:44;;;;;;;1.20;0.80;;;18.50;94.30;;;;;;5080019;28;20455;-65
2022/06/24 04:53:15;;;;;;;1.80;0.90;;;18.40;94.20;;;;;;5081019;28;20454;-67
2022/06/24 04:55:48;;;;;;;0.70;0.70;;;18.40;94.70;;;;;;5079896;28;20442;-65
2022/06/24 04:58:25;;;;;;;3.23;1.17;;;18.30;94.70;;;;;;5080476;28;20433;-64
2022/06/24 05:00:57;;;;;;;0.60;0.60;;;18.10;95.40;;;;;;5079616;28;20516;-65
2022/06/24 05:03:32;;;;;;;1.00;1.00;;;18.10;96.00;;;;;;5074266;28;20465;-64
2022/06/24 05:06:05;;;;;;;1.57;0.83;;;18.00;96.00;;;;;;5079033;28;20473;-65
2022/06/24 05:08:37;;;;;;;2.60;1.33;;;18.00;96.50;;;;;;5080422;28;20464;-65
2022/06/24 05:11:09;;;;;;;4.03;1.00;;;17.90;96.50;;;;;;5080323;28;20433;-65
2022/06/24 05:13:43;;;;;;;4.23;1.13;;;17.80;97.00;;;;;;5055291;28;20422;-65
2022/06/24 05:16:13;;;;;;;0.90;0.67;;;17.70;97.60;;;;;;5079589;28;20585;-64
2022/06/24 05:19:05;;;;;;;1.33;0.97;;;17.60;97.70;;;;;;5080371;28;20434;-64
2022/06/24 05:21:36;;;;;;;2.80;1.10;;;17.60;98.10;;;;;;5065569;28;20849;-65
2022/06/24 05:24:07;;;;;;;1.00;0.80;;;17.50;98.50;;;;;;5080330;28;20476;-64
2022/06/24 05:26:43;;;;;;;1.10;0.83;;;17.50;98.90;;;;;;5074336;28;20506;-65
2022/06/24 05:29:14;;;;;;;0.90;0.80;;;17.40;99.40;;;;;;5080392;28;20429;-65
2022/06/24 05:31:46;;;;;;;1.63;0.83;;;17.30;99.30;;;;;;5081511;28;20434;-65
2022/06/24 05:34:17;;;;;;;2.80;1.27;;;17.20;99.90;;;;;;5080431;28;20562;-65
2022/06/24 05:36:51;;;;;;;4.10;1.10;;;17.10;99.90;;;;;;5079769;28;20543;-65
2022/06/24 05:39:23;;;;;;;1.30;1.00;;;17.10;99.90;;;;;;5079787;28;20464;-65
2022/06/24 05:41:56;;;;;;;1.70;1.03;;;17.10;99.90;;;;;;5080542;28;20515;-65
2022/06/24 05:44:27;;;;;;;1.00;0.90;;;17.00;99.90;;;;;;5080749;28;20461;-64
2022/06/24 05:46:57;;;;;;;2.87;0.87;;;16.90;99.90;;;;;;5078622;28;20434;-65
2022/06/24 05:49:28;;;;;;;1.10;1.00;;;16.90;99.90;;;;;;5073622;28;20451;-65
2022/06/24 05:52:01;;;;;;;1.00;0.83;;;16.80;99.90;;;;;;5084508;28;20462;-64
2022/06/24 05:57:21;;;;;;;1.00;0.67;;;16.60;99.90;;;;;;5085182;28;20434;-64
2022/06/24 05:59:52;;;;;;;0.80;0.80;;;16.60;99.90;;;;;;5085450;28;20546;-64
2022/06/24 06:02:24;;;;;;;3.93;1.10;;;16.50;99.90;;;;;;5085229;28;20422;-64
2022/06/24 06:04:59;;;;;;;4.10;1.33;;;16.50;99.90;;;;;;5078714;28;20459;-64
2022/06/24 06:07:35;;;;;;;1.80;1.30;;;16.40;99.90;;;;;;5084996;28;20625;-64
2022/06/24 06:10:06;;;;;;;2.20;1.10;;;16.40;99.90;;;;;;5082384;28;20467;-64
2022/06/24 06:12:39;;;;;;;1.20;0.83;;;16.30;99.90;;;;;;5083446;28;20434;-65
2022/06/24 06:15:11;;;;;;;2.10;1.30;;;16.30;99.90;;;;;;5074604;28;20779;-64
2022/06/24 06:17:42;;;;;;;2.83;0.80;;;16.30;99.90;;;;;;5077966;28;20472;-64
2022/06/24 06:20:13;;;;;;;1.83;1.20;;;16.20;99.90;;;;;;5079166;28;20633;-64
2022/06/24 06:22:44;;;;;;;2.63;0.73;;;16.20;99.90;;;;;;5081312;28;20916;-64
2022/06/24 06:25:16;;;;;;;1.80;1.03;;;16.10;99.90;;;;;;5082472;28;20586;-64
2022/06/24 06:27:49;;;;;;;0.97;0.83;;;16.00;99.90;;;;;;5083870;28;20499;-64
2022/06/24 06:30:20;;;;;;;2.03;1.10;;;16.00;99.90;;;;;;5083922;28;20466;-64
2022/06/24 06:32:51;;;;;;;2.60;1.30;;;15.90;99.90;;;;;;5083823;28;20445;-64
2022/06/24 06:35:21;;;;;;;2.60;0.83;;;15.80;99.90;;;;;;5082937;28;20470;-64
2022/06/24 06:37:52;;;;;;;0.93;0.63;;;15.80;99.90;;;;;;5083711;28;20509;-64
2022/06/24 06:40:24;;;;;;;0.83;0.83;;;15.80;99.90;;;;;;5082667;28;20439;-64
2022/06/24 06:42:57;;;;;;;2.60;1.00;;;15.70;99.90;;;;;;5084365;28;20456;-64
2022/06/24 06:45:28;;;;;;;0.80;0.80;;;15.80;99.90;;;;;;5083879;28;20479;-64
2022/06/24 06:47:58;;;;;;;0.50;0.50;;;15.70;99.90;;;;;;5084398;28;20778;-64
2022/06/24 06:50:33;;;;;;;0.80;0.73;;;15.60;99.90;;;;;;5069470;28;20837;-65
2022/06/24 06:53:04;;;;;;;1.50;0.70;;;15.50;99.90;;;;;;5077469;28;20477;-64
2022/06/24 06:55:35;;;;;;;1.47;1.00;;;15.40;99.90;;;;;;5082963;28;20589;-64
2022/06/24 06:58:08;;;;;;;1.30;0.70;;;15.30;99.90;;;;;;5083269;28;20464;-65
2022/06/24 07:00:38;;;;;;;1.50;0.73;;;15.30;99.90;;;;;;5075644;28;20465;-64
2022/06/24 07:03:09;;;;;;;1.10;1.00;;;15.30;99.90;;;;;;5082016;28;20525;-64
2022/06/24 07:05:42;;;;;;;5.53;1.07;;;15.20;99.90;;;;;;5082265;28;20490;-64
2022/06/24 07:08:14;;;;;;;1.00;0.87;;;15.20;99.90;;;;;;5082208;28;20436;-64
2022/06/24 07:10:45;;;;;;;1.57;0.97;;;15.20;99.90;;;;;;5076205;28;20467;-64
2022/06/24 07:13:19;;;;;;;1.80;1.00;;;15.10;99.90;;;;;;5082926;28;20456;-65
2022/06/24 07:15:50;;;;;;;1.30;0.90;;;15.00;99.90;;;;;;5082073;28;20467;-64
2022/06/24 07:18:21;;;;;;;0.97;0.97;;;15.00;99.90;;;;;;5082461;28;20838;-64
2022/06/24 07:20:52;;;;;;;0.70;0.70;;;15.10;99.90;;;;;;5082290;28;20585;-64
2022/06/24 07:23:24;;;;;;;1.73;0.97;;;15.00;99.90;;;;;;5081468;28;20494;-64
2022/06/24 07:25:58;;;;;;;1.97;0.90;;;15.00;99.90;;;;;;5082263;28;20491;-65
2022/06/24 07:28:32;;;;;;;1.27;1.07;;;14.90;99.90;;;;;;5082132;28;20437;-65
2022/06/24 07:31:15;;;;;;;2.20;1.10;;;14.90;99.90;;;;;;5080579;28;20543;-64
2022/06/24 07:33:47;;;;;;;1.23;0.80;;;14.90;99.90;;;;;;5063649;28;20462;-64
2022/06/24 07:36:18;;;;;;;1.30;1.00;;;14.80;99.90;;;;;;5080694;28;20468;-64
2022/06/24 07:38:49;;;;;;;1.57;0.70;;;14.80;99.90;;;;;;5082485;28;20872;-64
2022/06/24 07:41:19;;;;;;;0.87;0.87;;;14.80;99.90;;;;;;5079896;28;21060;-65
2022/06/24 07:43:53;;;;;;;0.53;0.53;;;14.70;99.90;;;;;;5082161;28;20442;-65
2022/06/24 07:46:23;;;;;;;0.70;0.70;;;14.70;99.90;;;;;;5075635;28;20487;-65
2022/06/24 07:48:54;;;;;;;1.77;0.60;;;14.70;99.90;;;;;;5082068;28;20460;-64
2022/06/24 07:51:30;;;;;;;1.47;0.60;;;14.60;99.90;;;;;;5081526;28;20462;-64
2022/06/24 07:54:02;;;;;;;0.93;0.70;;;14.60;99.90;;;;;;5079936;28;20470;-64
2022/06/24 07:59:24;;;;;;;0.87;0.70;;;14.50;99.90;;;;;;5075451;28;20566;-64
2022/06/24 08:01:55;;;;;;;1.37;0.70;;;14.50;99.90;;;;;;5081113;28;20799;-67
2022/06/24 08:04:27;;;;;;;0.90;0.80;;;14.50;99.90;;;;;;5080917;28;20451;-64
2022/06/24 08:06:59;;;;;;;3.13;0.63;;;14.50;99.90;;;;;;5080914;28;20491;-64
2022/06/24 08:09:32;;;;;;;1.73;1.07;;;14.50;99.90;;;;;;5082080;28;20448;-64
2022/06/24 08:12:07;;;;;;;1.47;0.50;;;14.50;99.90;;;;;;5079406;28;20459;-64
2022/06/24 08:14:40;;;;;;;1.17;0.87;;;14.50;99.90;;;;;;5080549;28;20487;-64
2022/06/24 08:17:11;;;;;;;0.60;0.50;;;14.50;99.90;;;;;;5080461;28;20451;-65
2022/06/24 08:19:42;;;;;;;0.67;0.60;;;14.40;99.90;;;;;;5075762;28;20468;-64
2022/06/24 08:22:13;;;;;;;1.40;0.50;;;14.50;99.90;;;;;;5080724;28;20487;-64
2022/06/24 08:24:48;;;;;;;0.70;0.67;;;14.50;99.90;;;;;;5081483;28;20531;-65
2022/06/24 08:27:39;;;;;;;0.50;0.50;;;14.40;99.90;;;;;;5080851;28;20491;-63
2022/06/24 08:30:13;;;;;;;0.73;0.73;;;14.40;99.90;;;;;;5081173;28;20451;-63
2022/06/24 08:32:44;;;;;;;1.57;0.80;;;14.30;99.90;;;;;;5081393;28;20776;-64
2022/06/24 08:35:16;;;;;;;0.70;0.70;;;14.30;99.90;;;;;;5080728;28;21064;-63
2022/06/24 08:37:56;;;;;;;1.17;0.73;;;14.20;99.90;;;;;;5081317;28;20470;-63
2022/06/24 08:40:28;;;;;;;0.70;0.50;;;14.20;99.90;;;;;;5081616;28;20451;-64
2022/06/24 08:43:00;;;;;;;1.97;0.80;;;14.20;99.90;;;;;;5080640;28;20474;-64
2022/06/24 08:45:33;;;;;;;0.60;0.43;;;14.20;99.90;;;;;;5080176;28;20472;-63
2022/06/24 08:48:08;;;;;;;0.70;0.50;;;14.20;99.90;;;;;;5078746;28;20849;-64
2022/06/24 08:50:39;;;;;;;2.10;1.57;;;14.10;99.90;;;;;;5061822;28;20429;-64
2022/06/24 08:53:14;;;;;;;2.10;0.50;;;14.10;99.90;;;;;;5081751;28;20463;-64
2022/06/24 08:55:48;;;;;;;1.70;0.77;;;14.00;99.90;;;;;;5080897;28;21155;-64
2022/06/24 08:58:20;;;;;;;1.13;0.60;;;13.90;99.90;;;;;;5079364;28;20547;-64
2022/06/24 09:00:53;;;;;;;1.10;0.50;;;13.80;99.90;;;;;;5081235;28;20546;-64
2022/06/24 09:03:24;;;;;;;0.60;0.60;;;13.80;99.90;;;;;;5080332;28;20481;-64
2022/06/24 09:05:56;;;;;;;1.63;0.80;;;13.70;99.90;;;;;;5074818;28;20471;-64
2022/06/24 09:08:34;;;;;;;0.60;0.60;;;13.60;99.90;;;;;;5080677;28;20487;-64
2022/06/24 09:11:10;;;;;;;0.87;0.53;;;13.60;99.90;;;;;;5080766;28;20474;-64
2022/06/24 09:13:46;;;;;;;1.97;0.87;;;13.60;99.90;;;;;;5081537;28;20467;-63
2022/06/24 09:16:20;;;;;;;1.30;0.87;;;13.50;99.90;;;;;;5079786;28;20523;-64
2022/06/24 09:18:55;;;;;;;0.70;0.70;;;13.50;99.90;;;;;;5079843;28;20936;-64
2022/06/24 09:21:28;;;;;;;1.63;1.03;;;13.50;99.90;;;;;;5080384;28;20474;-64
2022/06/24 09:24:01;;;;;;;0.60;0.53;;;13.40;99.90;;;;;;5080916;28;20490;-64
2022/06/24 09:26:33;;;;;;;0.90;0.63;;;13.50;99.90;;;;;;5083841;28;20487;-63
2022/06/24 09:29:06;;;;;;;1.23;0.77;;;13.50;99.90;;;;;;5071024;28;20550;-63
2022/06/24 09:31:39;;;;;;;0.60;0.60;;;13.50;99.90;;;;;;5083991;28;20434;-64
2022/06/24 09:34:12;;;;;;;0.80;0.80;;;13.40;99.90;;;;;;5084373;28;20483;-64
2022/06/24 09:36:45;;;;;;;0.90;0.80;;;13.30;99.90;;;;;;5083397;28;20463;-63
2022/06/24 09:39:17;;;;;;;1.17;0.90;;;13.30;99.90;;;;;;5085035;28;20470;-64
2022/06/24 09:41:56;;;;;;;2.00;0.80;;;13.30;99.90;;;;;;5085094;28;20459;-64
2022/06/24 09:44:27;;;;;;;2.43;1.00;;;13.30;99.90;;;;;;5083889;28;20481;-64
2022/06/24 09:47:08;;;;;;;0.97;0.63;;;13.20;99.90;;;;;;5078670;28;20510;-64
2022/06/24 09:49:39;;;;;;;1.10;0.97;;;13.20;99.90;;;;;;5083772;28;20478;-64
2022/06/24 09:52:12;;;;;;;0.70;0.60;;;13.10;99.90;;;;;;5083266;28;20541;-64
2022/06/24 09:54:43;;;;;;;1.57;0.80;;;13.10;99.90;;;;;;5084023;28;20465;-64
2022/06/24 09:57:15;;;;;;;0.97;0.87;;;13.00;99.90;;;;;;5084660;28;20467;-64
2022/06/24 10:02:37;;;;;;;1.03;0.73;;;13.00;99.90;;;;;;5077137;28;20467;-64
2022/06/24 10:05:10;;;;;;;0.83;0.63;;;12.90;99.90;;;;;;5080115;28;20455;-64
2022/06/24 10:07:45;;;;;;;0.57;0.57;;;12.90;99.90;;;;;;5084672;28;20499;-64
2022/06/24 10:10:17;;;;;;;0.43;0.43;;;12.90;99.90;;;;;;5083568;28;20458;-64
2022/06/24 10:12:54;;;;;;;1.33;0.90;;;12.80;99.90;;;;;;5083932;28;20465;-64
2022/06/24 10:15:28;;;;;;;1.57;0.90;;;12.80;99.90;;;;;;5084236;28;20813;-64
2022/06/24 10:18:03;;;;;;;2.80;1.20;;;12.70;99.90;;;;;;5075432;28;20470;-64
2022/06/24 10:20:34;;;;;;;1.87;0.87;;;12.70;99.90;;;;;;5082153;28;20505;-64
2022/06/24 10:23:05;;;;;;;0.60;0.60;;;12.60;99.90;;;;;;5071678;28;20482;-64
2022/06/24 10:25:55;;;;;;;0.77;0.77;;;12.60;99.90;;;;;;5083127;28;20480;-64
2022/06/24 10:28:26;;;;;;;2.97;1.00;;;12.40;99.90;;;;;;5083615;28;20529;-64
2022/06/24 10:30:59;;;;;;;1.10;1.00;;;12.40;99.90;;;;;;5078342;28;20451;-63
2022/06/24 10:33:33;;;;;;;1.30;1.20;;;12.30;99.90;;;;;;5083466;28;20538;-64
2022/06/24 10:36:05;;;;;;;1.33;0.93;;;12.30;99.90;;;;;;5082305;28;20482;-64
2022/06/24 10:38:45;;;;;;;0.60;0.60;;;12.10;99.90;;;;;;5084128;28;20466;-64
2022/06/24 10:41:16;;;;;;;1.90;0.73;;;12.20;99.90;;;;;;5083984;28;20470;-63
2022/06/24 10:43:48;;;;;;;1.27;0.80;;;12.20;99.90;;;;;;5082698;28;20473;-63
2022/06/24 10:46:22;;;;;;;1.07;0.70;;;12.10;99.90;;;;;;5083437;28;20456;-63
2022/06/24 10:49:04;;;;;;;1.57;0.77;;;12.00;99.90;;;;;;5079458;28;20474;-63
2022/06/24 10:51:35;;;;;;;1.10;1.00;;;11.90;99.90;;;;;;5081964;28;20459;-63
2022/06/24 10:54:24;;;;;;;3.20;0.90;;;11.90;99.90;;;;;;5084523;28;20461;-63
2022/06/24 10:57:01;;;;;;;2.93;1.03;;;11.90;99.90;;;;;;5081136;28;20970;-63
2022/06/24 10:59:32;;;;;;;1.10;1.00;;;11.80;99.90;;;;;;5082375;28;20543;-63
2022/06/24 11:02:05;;;;;;;1.07;0.50;;;11.80;99.90;;;;;;5082852;28;20550;-63
2022/06/24 11:04:40;;;;;;;2.97;1.10;;;11.80;99.90;;;;;;5082575;28;20456;-63
2022/06/24 11:07:13;;;;;;;4.43;1.20;;;11.80;99.90;;;;;;5080636;28;20451;-64
2022/06/24 11:09:44;;;;;;;2.40;1.23;;;11.80;99.90;;;;;;5079914;28;20470;-64
2022/06/24 11:12:30;;;;;;;0.80;0.70;;;11.80;99.90;;;;;;5083909;28;20470;-65
2022/06/24 11:15:02;;;;;;;1.13;0.60;;;11.70;99.90;;;;;;5081815;28;20456;-65
2022/06/24 11:17:32;;;;;;;1.27;1.10;;;11.70;99.90;;;;;;5082798;28;20463;-65
2022/06/24 11:20:09;;;;;;;1.53;1.43;;;11.70;99.90;;;;;;5081724;28;20815;-64
2022/06/24 11:22:44;;;;;;;1.27;1.07;;;11.70;99.90;;;;;;5082662;28;20483;-65
2022/06/24 11:25:16;;;;;;;3.00;1.27;;;11.60;99.90;;;;;;5080298;28;20607;-65
2022/06/24 11:27:46;;;;;;;0.80;0.80;;;11.60;99.90;;;;;;5081318;28;20502;-65
2022/06/24 11:30:17;;;;;;;1.30;1.20;;;11.50;99.90;;;;;;5081664;28;20489;-64
2022/06/24 11:32:55;;;;;;;1.23;0.83;;;11.50;99.90;;;;;;5082662;28;20451;-65
2022/06/24 11:35:28;;;;;;;0.97;0.87;;;11.50;99.90;;;;;;5075960;28;20467;-65
2022/06/24 11:37:59;;;;;;;1.30;1.07;;;11.50;99.90;;;;;;5082649;28;20455;-64
2022/06/24 11:40:31;;;;;;;2.10;0.93;;;11.50;99.90;;;;;;5081703;28;20459;-65
2022/06/24 11:43:07;;;;;;;1.93;1.30;;;11.50;99.90;;;;;;5082476;28;20464;-65
2022/06/24 11:45:39;;;;;;;1.13;1.07;;;11.40;99.90;;;;;;5081877;28;20467;-65
2022/06/24 11:48:11;;;;;;;1.23;1.13;;;11.40;99.90;;;;;;5080180;28;20498;-65
2022/06/24 11:50:45;;;;;;;1.57;0.80;;;11.30;99.90;;;;;;5080954;28;20578;-65
2022/06/24 11:53:17;;;;;;;1.83;0.90;;;11.30;99.90;;;;;;5081850;28;20452;-65
2022/06/24 11:55:56;;;;;;;2.40;1.00;;;11.20;99.90;;;;;;5082143;28;20459;-65
2022/06/24 11:58:26;;;;;;;1.10;1.00;;;11.20;99.90;;;;;;5081733;28;20549;-64
2022/06/24 12:00:57;;;;;;;1.10;1.00;;;11.20;99.90;;;;;;5081025;28;20865;-64
2022/06/24 12:03:29;;;;;;;1.97;1.50;;;11.30;99.90;;;;;;5081051;28;20482;-65
2022/06/24 12:06:01;;;;;;;1.63;0.93;;;11.20;99.90;;;;;;5080549;28;20468;-65
2022/06/24 12:08:32;;;;;;;2.00;1.20;;;11.10;99.90;;;;;;5081443;28;20502;-65
2022/06/24 12:11:03;;;;;;;2.00;0.87;;;11.10;99.90;;;;;;5080397;28;20452;-65
2022/06/24 12:13:34;;;;;;;1.57;1.47;;;11.10;99.90;;;;;;5079901;28;20454;-63
2022/06/24 12:16:05;;;;;;;1.70;1.30;;;10.90;99.90;;;;;;5080855;28;20455;-63
2022/06/24 12:18:37;;;;;;;1.63;0.93;;;10.90;99.90;;;;;;5080620;28;20489;-64
2022/06/24 12:21:10;;;;;;;1.30;1.20;;;10.90;99.90;;;;;;5079198;28;20452;-64
2022/06/24 12:23:44;;;;;;;1.20;1.10;;;11.00;99.90;;;;;;5081292;28;20515;-64
2022/06/24 12:26:16;;;;;;;2.43;0.90;;;10.90;99.90;;;;;;5075696;28;20618;-64
2022/06/24 12:28:58;;;;;;;1.00;1.00;;;10.90;99.90;;;;;;5081543;28;20499;-64
2022/06/24 12:31:29;;;;;;;1.67;1.40;;;10.90;99.90;;;;;;5080294;28;20460;-64
2022/06/24 12:34:00;;;;;;;1.10;1.00;;;10.80;99.90;;;;;;5081226;28;20577;-64
2022/06/24 12:36:41;;;;;;;1.20;1.10;;;10.70;99.90;;;;;;5079578;28;20806;-64
2022/06/24 12:39:12;;;;;;;1.70;1.03;;;10.70;99.90;;;;;;5081393;28;20460;-63
2022/06/24 12:41:47;;;;;;;1.97;1.50;;;10.70;99.90;;;;;;5081065;28;20535;-64
2022/06/24 12:44:18;;;;;;;1.80;1.07;;;10.70;99.90;;;;;;5081151;28;20491;-64
2022/06/24 12:52:34;;;;;;;3.83;1.47;;;10.70;99.90;;;;;;5076500;28;20474;-63
2022/06/24 12:55:07;;;;;;;1.47;1.23;;;10.70;99.90;;;;;;5080577;28;20462;-64
2022/06/24 12:57:38;;;;;;;4.20;1.00;;;10.70;99.90;;;;;;5081022;28;20451;-64
2022/06/24 13:00:12;;;;;;;1.27;1.17;;;10.70;99.90;;;;;;5081224;28;20443;-64
2022/06/24 13:02:45;;;;;;;1.83;1.30;;;10.80;99.90;;;;;;5080203;28;21004;-63
2022/06/24 13:05:19;;;;;;;3.23;1.00;;;10.80;99.90;;;;;;5079481;28;20475;-64
2022/06/24 13:07:52;;;;;;;1.50;0.90;;;10.80;99.90;;;;;;5072194;28;20463;-64
2022/06/24 13:10:24;;;;;;;1.20;1.20;;;10.80;99.90;;;;;;5080626;28;20895;-64
2022/06/24 13:12:55;;;;;;;0.90;0.90;;;10.90;99.90;;;;;;5079098;28;20939;-64
2022/06/24 13:15:26;;;;;;;2.00;1.20;;;10.90;99.90;;;;;;5069162;28;20456;-64
2022/06/24 13:17:58;;;;;;;1.83;1.40;;;11.00;99.90;;;;;;5080795;28;20459;-63
2022/06/24 13:20:29;;;;;;;2.80;1.30;;;11.00;99.90;;;;;;5079332;28;20460;-64
2022/06/24 13:23:01;;;;;;;1.50;1.40;;;11.20;99.90;;;;;;5080013;28;20490;-64
2022/06/24 13:25:33;;;;;;;1.93;1.13;;;11.30;99.90;;;;;;5080449;28;20976;-64
2022/06/24 13:28:05;;;;;;;1.53;1.20;;;11.30;99.90;;;;;;5080363;28;20459;-64
2022/06/24 13:30:36;;;;;;;2.67;1.43;;;11.30;99.90;;;;;;5079605;28;21035;-64
2022/06/24 13:33:07;;;;;;;2.70;1.00;;;11.50;99.90;;;;;;5080813;28;20455;-64
2022/06/24 13:35:37;;;;;;;1.20;1.10;;;11.50;99.90;;;;;;5077701;28;20802;-64
2022/06/24 13:38:17;;;;;;;2.13;1.10;;;11.60;99.90;;;;;;5077418;28;20482;-64